Time;durP1;ratioP1;P1;durP2;ratioP2;P2;SDS_P1;SDS_P2;PMS_P1;PMS_P2;Temp;Humidity;BMP_temperature;BMP_pressure;BME280_temperature;BME280_humidity;BME280_pressure;Samples;Min_cycle;Max_cycle;Signal;HPM_P1;HPM_P2
2021/01/08 00:00:50;;;;;;;37.30;14.90;;;;;;;-0.36;56.36;98900.75;10460382;28;20143;-54
2021/01/08 00:05:52;;;;;;;36.55;14.75;;;;;;;-0.37;56.52;98905.09;10461400;28;20069;-55
2021/01/08 00:10:54;;;;;;;36.67;13.43;;;;;;;-0.29;56.28;98902.06;10460870;28;20096;-55
2021/01/08 00:15:56;;;;;;;32.72;12.40;;;;;;;-0.21;56.32;98897.34;10459889;28;20060;-55
2021/01/08 00:20:59;;;;;;;35.22;12.70;;;;;;;-0.23;56.43;98901.75;10459673;28;20539;-54
2021/01/08 00:26:00;;;;;;;40.45;14.20;;;;;;;-0.23;56.79;98894.00;10460095;28;20166;-54
2021/01/08 00:31:02;;;;;;;36.95;14.70;;;;;;;-0.26;56.06;98892.41;10459982;28;20059;-57
2021/01/08 00:36:05;;;;;;;39.72;14.10;;;;;;;-0.35;56.72;98886.91;10460329;28;20045;-56
2021/01/08 00:41:07;;;;;;;37.53;14.68;;;;;;;-0.35;56.60;98889.50;10458985;28;20045;-55
2021/01/08 00:46:08;;;;;;;41.17;16.92;;;;;;;-0.42;56.68;98886.41;10458734;28;20052;-55
2021/01/08 00:51:11;;;;;;;40.03;14.35;;;;;;;-0.44;56.67;98877.06;10459062;28;20054;-54
2021/01/08 00:56:17;;;;;;;39.20;14.10;;;;;;;-0.49;56.54;98875.56;10457573;28;20107;-54
2021/01/08 01:01:22;;;;;;;47.47;17.67;;;;;;;-0.49;56.70;98875.56;10457575;28;20149;-54
2021/01/08 01:06:27;;;;;;;44.08;16.33;;;;;;;-0.51;56.60;98881.72;10458322;28;20609;-56
2021/01/08 01:11:30;;;;;;;47.83;18.10;;;;;;;-0.54;57.07;98872.41;10458118;28;20041;-53
2021/01/08 01:16:31;;;;;;;51.97;22.40;;;;;;;-0.53;57.30;98862.91;10458100;28;20055;-54
2021/01/08 01:21:34;;;;;;;51.85;21.42;;;;;;;-0.44;56.94;98853.84;10457293;28;20853;-54
2021/01/08 01:26:36;;;;;;;54.33;19.98;;;;;;;-0.42;57.05;98855.41;10458181;28;20083;-55
2021/01/08 01:31:37;;;;;;;62.17;22.85;;;;;;;-0.51;56.94;98851.56;10457479;28;20427;-54
2021/01/08 01:36:40;;;;;;;57.10;23.80;;;;;;;-0.44;56.94;98846.91;10456692;28;20040;-55
2021/01/08 01:41:42;;;;;;;67.47;23.20;;;;;;;-0.48;56.83;98835.09;10459920;28;20067;-53
2021/01/08 01:46:44;;;;;;;62.97;22.90;;;;;;;-0.40;56.90;98832.09;10458029;28;20049;-54
2021/01/08 01:51:46;;;;;;;71.90;29.48;;;;;;;-0.34;56.88;98829.16;10459015;28;20542;-53
2021/01/08 01:56:48;;;;;;;58.15;22.80;;;;;;;-0.47;56.98;98816.91;10457579;28;20048;-54
2021/01/08 02:01:50;;;;;;;53.22;19.73;;;;;;;-0.44;57.50;98815.09;10457849;28;20064;-57
2021/01/08 02:06:54;;;;;;;56.38;21.30;;;;;;;-0.45;57.56;98810.88;10458223;28;20061;-54
2021/01/08 02:11:59;;;;;;;55.92;21.60;;;;;;;-0.35;57.41;98805.09;10457854;28;20049;-59
2021/01/08 02:17:01;;;;;;;46.63;17.90;;;;;;;-0.25;57.37;98802.84;10457841;28;20049;-53
2021/01/08 02:22:11;;;;;;;38.38;15.48;;;;;;;-0.22;57.17;98792.34;10458092;28;20053;-54
2021/01/08 02:27:14;;;;;;;49.35;19.73;;;;;;;-0.14;57.07;98777.25;10457433;28;20052;-53
2021/01/08 02:32:16;;;;;;;45.25;19.65;;;;;;;-0.16;57.07;98766.16;10458168;28;20048;-56
2021/01/08 02:37:18;;;;;;;31.05;13.48;;;;;;;-0.22;56.85;98761.34;10457462;28;20053;-55
2021/01/08 02:42:22;;;;;;;35.92;15.30;;;;;;;-0.43;57.34;98755.66;10457987;28;20135;-53
2021/01/08 02:47:24;;;;;;;29.38;12.82;;;;;;;-0.50;57.67;98747.38;10456897;28;20140;-55
2021/01/08 02:52:28;;;;;;;26.38;12.13;;;;;;;-0.55;57.64;98751.97;10456851;28;20055;-54
2021/01/08 02:57:31;;;;;;;;;;;;;;;-0.58;57.83;98741.00;10454931;28;20448;-56
2021/01/08 03:02:33;;;;;;;25.27;11.88;;;;;;;-0.56;57.84;98739.97;10462171;28;19924;-54
2021/01/08 03:07:35;;;;;;;29.20;11.90;;;;;;;-0.46;57.95;98740.31;10462760;28;20140;-53
2021/01/08 03:12:38;;;;;;;31.10;11.85;;;;;;;-0.39;57.83;98749.38;10461369;28;20490;-59
2021/01/08 03:17:40;;;;;;;;;;;;;;;-0.45;58.01;98751.47;10462902;28;20409;-55
2021/01/08 03:22:42;;;;;;;27.50;11.02;;;;;;;-0.48;57.64;98745.56;10462833;28;20373;-59
2021/01/08 03:27:44;;;;;;;30.77;11.68;;;;;;;-0.39;58.20;98746.81;10463102;28;20452;-58
2021/01/08 03:32:46;;;;;;;30.77;11.63;;;;;;;-0.41;57.96;98737.47;10434002;28;20095;-54
2021/01/08 03:37:47;;;;;;;28.95;12.82;;;;;;;-0.38;58.45;98737.31;10420457;28;20077;-53
2021/01/08 03:42:50;;;;;;;34.78;14.13;;;;;;;-0.42;57.98;98731.47;10420573;28;20458;-54
2021/01/08 03:47:52;;;;;;;36.95;14.73;;;;;;;-0.30;58.19;98724.81;10430783;28;20060;-53
2021/01/08 03:52:53;;;;;;;31.33;13.07;;;;;;;-0.30;57.96;98729.97;10460476;28;20049;-54
2021/01/08 03:57:56;;;;;;;29.92;13.35;;;;;;;-0.33;58.37;98724.97;10460292;28;20045;-54
2021/01/08 04:02:58;;;;;;;27.08;10.98;;;;;;;-0.31;58.24;98723.13;10462147;28;20061;-53
2021/01/08 04:07:59;;;;;;;26.60;12.23;;;;;;;-0.24;58.37;98716.72;10460276;28;20041;-54
2021/01/08 04:13:02;;;;;;;27.48;10.88;;;;;;;-0.17;57.79;98715.44;10458840;28;20057;-53
2021/01/08 04:18:04;;;;;;;28.90;12.15;;;;;;;-0.19;58.46;98717.25;10459611;28;20041;-54
2021/01/08 04:23:05;;;;;;;32.03;11.65;;;;;;;-0.16;58.19;98706.75;10460150;28;20063;-54
2021/01/08 04:28:08;;;;;;;28.00;11.73;;;;;;;-0.22;58.50;98691.59;10459975;28;20045;-54
2021/01/08 04:33:10;;;;;;;28.45;13.52;;;;;;;-0.21;58.60;98690.72;10459905;28;20068;-53
2021/01/08 04:38:11;;;;;;;27.35;12.35;;;;;;;-0.20;58.17;98689.78;10458430;28;20060;-54
2021/01/08 04:43:14;;;;;;;32.53;13.48;;;;;;;-0.08;58.20;98690.81;10457983;28;20049;-54
2021/01/08 04:48:18;;;;;;;25.02;10.50;;;;;;;-0.09;58.18;98687.41;10458231;28;20076;-54
2021/01/08 04:53:19;;;;;;;24.45;11.65;;;;;;;-0.09;58.35;98682.25;10459053;28;20513;-55
2021/01/08 04:58:25;;;;;;;26.55;11.43;;;;;;;-0.07;58.29;98676.97;10456967;28;20195;-56
2021/01/08 05:03:28;;;;;;;25.98;10.63;;;;;;;-0.11;58.40;98672.91;10458108;28;20386;-55
2021/01/08 05:08:29;;;;;;;30.58;11.38;;;;;;;-0.09;58.42;98671.09;10458448;28;20049;-54
2021/01/08 05:13:35;;;;;;;20.67;9.02;;;;;;;-0.06;58.27;98671.75;10457406;28;20063;-53
2021/01/08 05:18:37;;;;;;;25.98;9.00;;;;;;;-0.01;58.27;98674.03;10457188;28;20064;-56
2021/01/08 05:23:39;;;;;;;24.98;9.95;;;;;;;0.01;58.35;98663.63;10458392;28;20174;-58
2021/01/08 05:28:47;;;;;;;27.85;10.85;;;;;;;-0.02;58.20;98656.88;10458903;28;20049;-54
2021/01/08 05:33:50;;;;;;;18.02;6.88;;;;;;;-0.05;58.38;98664.81;10457517;28;20063;-53
2021/01/08 05:38:53;;;;;;;21.50;10.05;;;;;;;-0.07;58.80;98664.88;10456084;28;20049;-55
2021/01/08 05:43:56;;;;;;;28.83;11.87;;;;;;;-0.09;58.75;98659.00;10455974;28;20056;-55
2021/01/08 05:49:00;;;;;;;26.83;10.27;;;;;;;-0.02;58.71;98657.72;10456503;28;20290;-53
2021/01/08 05:54:02;;;;;;;;;;;;;;;0.00;58.86;98655.06;10456713;28;20500;-54
2021/01/08 05:59:05;;;;;;;23.98;10.35;;;;;;;-0.12;58.92;98656.59;10454800;28;20390;-53
2021/01/08 06:04:08;;;;;;;25.13;12.07;;;;;;;-0.10;59.21;98654.72;10455446;28;20478;-55
2021/01/08 06:09:12;;;;;;;25.50;11.63;;;;;;;-0.16;59.25;98644.75;10455170;28;20529;-55
2021/01/08 06:14:17;;;;;;;30.02;11.63;;;;;;;-0.17;59.25;98645.69;10455468;28;20402;-54
2021/01/08 06:19:19;;;;;;;20.23;7.60;;;;;;;-0.23;59.23;98638.28;10456708;28;20045;-54
2021/01/08 06:24:25;;;;;;;23.67;10.88;;;;;;;-0.36;59.67;98629.59;10458488;28;20110;-56
2021/01/08 06:29:32;;;;;;;21.58;9.00;;;;;;;-0.40;59.81;98635.84;10455814;28;20041;-54
2021/01/08 06:34:45;;;;;;;25.42;10.27;;;;;;;-0.42;59.98;98637.69;10454177;28;20045;-53
2021/01/08 06:39:47;;;;;;;19.15;8.45;;;;;;;-0.39;60.07;98634.94;10455438;28;20068;-54
2021/01/08 06:44:50;;;;;;;17.75;7.70;;;;;;;-0.36;60.36;98634.75;10455010;28;20070;-57
2021/01/08 06:49:52;;;;;;;25.83;11.50;;;;;;;-0.25;60.09;98629.78;10454937;28;20048;-56
2021/01/08 06:54:55;;;;;;;26.33;12.90;;;;;;;-0.22;59.95;98629.63;10453587;28;20053;-55
2021/01/08 07:00:02;;;;;;;32.80;11.65;;;;;;;-0.04;59.90;98631.13;10452817;28;20053;-52
2021/01/08 07:05:05;;;;;;;19.83;7.30;;;;;;;0.05;59.72;98621.19;10454522;28;20049;-58
2021/01/08 07:10:07;;;;;;;28.40;9.87;;;;;;;0.09;59.38;98613.13;10453810;28;20040;-54
2021/01/08 07:15:12;;;;;;;24.48;10.70;;;;;;;0.14;59.48;98615.47;10453278;28;20049;-53
2021/01/08 07:20:14;;;;;;;26.40;11.30;;;;;;;0.14;59.82;98605.13;10454600;28;20037;-55
2021/01/08 07:25:17;;;;;;;23.83;10.32;;;;;;;0.16;59.31;98606.69;10454362;28;20077;-54
2021/01/08 07:30:21;;;;;;;24.60;11.67;;;;;;;0.20;59.63;98600.41;10453445;28;20044;-55
2021/01/08 07:35:25;;;;;;;23.05;10.38;;;;;;;0.27;59.67;98600.88;10453584;28;20056;-55
2021/01/08 07:40:27;;;;;;;;;;;;;;;0.28;59.48;98604.28;10453993;28;20136;-55
2021/01/08 07:45:50;;;;;;;23.67;9.75;;;;;;;0.34;59.23;98602.19;10453993;28;19928;-55
2021/01/08 07:50:58;;;;;;;28.63;11.23;;;;;;;0.36;59.40;98589.97;10461936;28;20070;-54
2021/01/08 07:56:04;;;;;;;27.20;11.13;;;;;;;0.31;59.05;98599.78;10461530;28;20056;-55
2021/01/08 08:01:08;;;;;;;28.88;11.80;;;;;;;0.29;59.68;98599.03;10460783;28;20045;-55
2021/01/08 08:06:10;;;;;;;26.70;13.07;;;;;;;0.28;59.51;98589.63;10459688;28;20053;-55
2021/01/08 08:11:14;;;;;;;28.08;12.13;;;;;;;0.31;59.29;98586.00;10460479;28;20053;-56
2021/01/08 08:16:16;;;;;;;27.35;13.73;;;;;;;0.33;59.72;98592.75;10461084;28;20511;-54
2021/01/08 08:21:18;;;;;;;31.80;14.20;;;;;;;0.40;59.52;98585.44;10459914;28;20037;-56
2021/01/08 08:26:20;;;;;;;34.58;15.60;;;;;;;0.43;59.41;98585.25;10458960;28;20067;-53
2021/01/08 08:31:24;;;;;;;26.60;12.38;;;;;;;0.47;59.57;98571.22;10459778;28;20461;-53
2021/01/08 08:36:27;;;;;;;33.78;12.25;;;;;;;0.47;59.82;98578.16;10460159;28;20568;-53
2021/01/08 08:41:30;;;;;;;29.83;13.50;;;;;;;0.50;59.65;98570.22;10458539;28;20044;-55
2021/01/08 08:46:47;;;;;;;34.90;14.85;;;;;;;0.56;59.61;98557.72;10458351;28;20672;-54
2021/01/08 08:51:50;;;;;;;29.02;13.18;;;;;;;0.58;59.26;98560.19;10458664;28;20049;-53
2021/01/08 08:56:53;;;;;;;27.60;10.85;;;;;;;0.66;59.09;98553.63;10458288;28;20044;-53
2021/01/08 09:01:56;;;;;;;32.55;14.40;;;;;;;0.61;59.21;98552.25;10458162;28;20081;-55
2021/01/08 09:07:03;;;;;;;28.85;11.80;;;;;;;0.56;59.16;98543.97;10458527;28;20063;-54
2021/01/08 09:12:15;;;;;;;28.65;11.13;;;;;;;0.59;59.65;98543.78;10457278;28;20049;-56
2021/01/08 09:17:24;;;;;;;33.45;12.75;;;;;;;0.64;59.29;98537.34;10458325;28;20056;-54
2021/01/08 09:22:28;;;;;;;27.50;11.57;;;;;;;0.66;59.50;98532.94;10459329;28;20144;-54
2021/01/08 09:27:30;;;;;;;28.23;13.02;;;;;;;0.65;59.18;98530.47;10457686;28;20059;-54
2021/01/08 09:32:34;;;;;;;32.03;13.25;;;;;;;0.64;59.29;98536.53;10456809;28;20049;-55
2021/01/08 09:37:41;;;;;;;29.40;13.85;;;;;;;0.70;59.27;98520.63;10457804;28;20052;-54
2021/01/08 09:42:43;;;;;;;26.67;11.07;;;;;;;0.66;59.51;98521.75;10456169;28;20053;-54
2021/01/08 09:47:46;;;;;;;32.58;13.80;;;;;;;0.69;59.28;98524.16;10457426;28;20057;-54
2021/01/08 09:52:49;;;;;;;35.77;14.87;;;;;;;0.72;59.62;98518.78;10456592;28;20049;-53
2021/01/08 09:57:55;;;;;;;18.43;8.27;;;;;;;0.69;59.41;98513.81;10455319;28;20390;-53
2021/01/08 10:02:58;;;;;;;28.48;12.07;;;;;;;0.61;59.41;98510.88;10455384;28;20053;-54
2021/01/08 10:08:01;;;;;;;28.20;11.53;;;;;;;0.58;59.96;98506.72;10456399;28;20055;-55
2021/01/08 10:13:07;;;;;;;21.52;9.05;;;;;;;0.60;59.47;98496.28;10455605;28;20053;-57
2021/01/08 10:18:11;;;;;;;30.13;13.93;;;;;;;0.61;59.84;98509.09;10455163;28;20355;-53
2021/01/08 10:23:14;;;;;;;27.23;12.25;;;;;;;0.63;59.75;98502.09;10455381;28;20056;-53
2021/01/08 10:28:18;;;;;;;30.05;13.98;;;;;;;0.69;59.54;98503.47;10454305;28;20478;-53
2021/01/08 10:33:24;;;;;;;27.13;12.25;;;;;;;0.64;59.71;98484.81;10455137;28;20053;-54
2021/01/08 10:38:26;;;;;;;24.27;11.48;;;;;;;0.68;60.00;98487.13;10455414;28;20053;-54
2021/01/08 10:43:29;;;;;;;23.55;12.02;;;;;;;0.65;60.07;98496.84;10456385;28;20140;-54
2021/01/08 10:48:32;;;;;;;23.73;10.63;;;;;;;0.69;60.50;98493.13;10455770;28;20421;-54
2021/01/08 10:53:33;;;;;;;28.93;10.73;;;;;;;0.68;60.13;98491.47;10455504;28;20085;-53
2021/01/08 10:58:35;;;;;;;31.80;12.15;;;;;;;0.69;60.46;98486.19;10454525;28;20291;-54
2021/01/08 11:03:38;;;;;;;19.63;9.82;;;;;;;0.76;60.29;98470.25;10454525;28;20041;-54
2021/01/08 11:08:39;;;;;;;21.77;10.60;;;;;;;0.84;59.99;98470.59;10453327;28;20374;-54
2021/01/08 11:13:41;;;;;;;18.98;8.60;;;;;;;0.75;59.78;98469.44;10454447;28;20044;-54
2021/01/08 11:18:44;;;;;;;21.08;9.00;;;;;;;0.69;60.33;98464.66;10454526;28;20454;-55
2021/01/08 11:23:46;;;;;;;20.15;8.65;;;;;;;0.61;59.86;98465.13;10461325;28;20496;-54
2021/01/08 11:28:48;;;;;;;22.25;9.75;;;;;;;0.53;60.44;98467.41;10462178;28;20057;-55
2021/01/08 11:33:50;;;;;;;21.20;8.80;;;;;;;0.54;60.36;98457.88;10462221;28;20386;-54
2021/01/08 11:38:52;;;;;;;16.83;9.68;;;;;;;0.61;60.18;98454.78;10461725;28;20060;-53
2021/01/08 11:43:54;;;;;;;22.77;9.82;;;;;;;0.68;60.93;98457.84;10461188;28;20160;-54
2021/01/08 11:48:56;;;;;;;18.73;8.88;;;;;;;0.76;60.82;98454.75;10461247;28;20049;-55
2021/01/08 11:53:58;;;;;;;20.90;9.52;;;;;;;0.72;61.00;98456.69;10460981;28;20477;-53
2021/01/08 11:59:00;;;;;;;20.00;10.18;;;;;;;0.72;60.84;98446.34;10461466;28;20493;-53
2021/01/08 12:04:02;;;;;;;15.82;7.65;;;;;;;0.62;61.32;98445.31;10462042;28;20057;-55
2021/01/08 12:09:06;;;;;;;16.88;8.77;;;;;;;0.68;61.38;98434.56;10459905;28;20064;-54
2021/01/08 12:14:08;;;;;;;22.10;10.38;;;;;;;0.79;61.32;98437.25;10460295;28;20136;-56
2021/01/08 12:19:11;;;;;;;24.63;9.68;;;;;;;0.91;61.23;98443.38;10461438;28;20445;-55
2021/01/08 12:24:13;;;;;;;17.25;7.45;;;;;;;1.01;61.29;98441.84;10462929;28;20092;-53
2021/01/08 12:29:14;;;;;;;22.77;11.48;;;;;;;1.00;61.27;98445.38;10460298;28;20060;-54
2021/01/08 12:34:17;;;;;;;24.23;10.13;;;;;;;0.94;61.01;98440.59;10459130;28;20048;-54
2021/01/08 12:39:19;;;;;;;22.20;9.43;;;;;;;0.90;61.50;98441.75;10459166;28;20110;-53
2021/01/08 12:44:20;;;;;;;24.58;11.43;;;;;;;0.89;61.37;98446.09;10459733;28;20056;-54
2021/01/08 12:49:24;;;;;;;23.67;10.25;;;;;;;0.87;61.22;98449.72;10457638;28;20477;-56
2021/01/08 12:54:26;;;;;;;21.55;10.05;;;;;;;0.87;61.16;98447.13;10458415;28;20076;-55
2021/01/08 12:59:28;;;;;;;23.73;9.38;;;;;;;0.82;61.52;98442.22;10458854;28;20094;-54
2021/01/08 13:04:31;;;;;;;22.20;9.40;;;;;;;0.88;61.63;98438.41;10458983;28;20045;-54
2021/01/08 13:09:32;;;;;;;21.98;8.02;;;;;;;0.87;61.57;98445.34;10458043;28;20060;-54
2021/01/08 13:14:34;;;;;;;20.63;9.55;;;;;;;0.81;61.52;98445.75;10457650;28;20185;-54
2021/01/08 13:19:37;;;;;;;23.20;10.95;;;;;;;0.73;62.01;98448.00;10458047;28;20041;-54
2021/01/08 13:24:38;;;;;;;23.13;10.35;;;;;;;0.66;62.03;98451.94;10457260;28;20056;-53
2021/01/08 13:29:40;;;;;;;20.55;9.43;;;;;;;0.68;62.05;98450.09;10457568;28;20140;-54
2021/01/08 13:34:43;;;;;;;24.48;11.07;;;;;;;0.70;61.83;98453.38;10457200;28;20048;-53
2021/01/08 13:39:44;;;;;;;19.90;9.90;;;;;;;0.62;61.86;98450.47;10456259;28;20056;-55
2021/01/08 13:44:47;;;;;;;21.15;11.20;;;;;;;0.53;61.96;98457.06;10456272;28;20083;-55
2021/01/08 13:49:50;;;;;;;20.65;10.27;;;;;;;0.51;62.12;98455.50;10456713;28;20045;-54
2021/01/08 13:54:51;;;;;;;24.15;10.00;;;;;;;0.56;62.25;98467.22;10456030;28;20055;-55
2021/01/08 13:59:53;;;;;;;24.40;9.93;;;;;;;0.65;61.72;98476.97;10456746;28;20087;-55
2021/01/08 14:04:56;;;;;;;20.02;8.48;;;;;;;0.63;62.06;98471.06;10413791;28;20045;-53
2021/01/08 14:09:58;;;;;;;20.53;10.47;;;;;;;0.60;62.01;98476.41;10414953;28;20132;-53
2021/01/08 14:14:59;;;;;;;11.18;4.43;;;;;;;0.54;61.65;98483.75;10416089;28;20049;-58
2021/01/08 14:20:02;;;;;;;21.55;9.23;;;;;;;0.52;61.69;98480.41;10433348;28;20516;-53
2021/01/08 14:25:04;;;;;;;20.57;9.27;;;;;;;0.65;61.55;98486.50;10456131;28;20144;-54
2021/01/08 14:30:07;;;;;;;22.10;11.00;;;;;;;0.72;61.05;98486.91;10455348;28;20127;-55
2021/01/08 14:35:12;;;;;;;20.03;8.13;;;;;;;0.58;61.52;98486.03;10455247;28;20130;-53
2021/01/08 14:40:15;;;;;;;20.15;9.70;;;;;;;0.55;61.37;98483.63;10455445;28;20144;-54
2021/01/08 14:45:17;;;;;;;17.47;6.83;;;;;;;0.55;60.97;98485.41;10455006;28;20049;-54
2021/01/08 14:50:19;;;;;;;23.67;10.80;;;;;;;0.50;61.70;98477.13;10455601;28;20059;-54
2021/01/08 14:55:21;;;;;;;21.48;8.45;;;;;;;0.50;61.16;98474.53;10456223;28;20095;-53
2021/01/08 15:00:23;;;;;;;21.38;8.68;;;;;;;0.43;61.50;98472.34;10455277;28;20064;-54
2021/01/08 15:05:26;;;;;;;21.17;9.10;;;;;;;0.49;61.12;98475.44;10455214;28;20103;-54
2021/01/08 15:10:28;;;;;;;23.15;8.70;;;;;;;0.34;61.24;98478.09;10455913;28;20048;-53
2021/01/08 15:15:29;;;;;;;21.60;9.05;;;;;;;0.18;61.71;98495.47;10422578;28;20454;-53
2021/01/08 15:20:32;;;;;;;23.45;9.13;;;;;;;0.09;61.84;98496.84;10436256;28;20064;-53
2021/01/08 15:25:34;;;;;;;17.38;8.70;;;;;;;-0.03;62.25;98492.47;10456981;28;20106;-55
2021/01/08 15:30:35;;;;;;;26.48;10.85;;;;;;;0.04;62.05;98500.66;10455659;28;20056;-53
2021/01/08 15:35:38;;;;;;;23.90;11.13;;;;;;;0.07;61.54;98495.31;10454387;28;20060;-53
2021/01/08 15:40:40;;;;;;;23.20;10.13;;;;;;;0.11;61.33;98507.94;10455939;28;20055;-55
2021/01/08 15:45:41;;;;;;;18.83;9.02;;;;;;;0.12;61.38;98494.06;10454416;28;20053;-53
2021/01/08 15:50:47;;;;;;;22.45;10.50;;;;;;;0.05;61.43;98486.81;10453272;28;20099;-55
2021/01/08 15:55:49;;;;;;;21.75;9.82;;;;;;;0.00;61.58;98494.88;10453325;28;20057;-54
2021/01/08 16:00:51;;;;;;;27.63;12.50;;;;;;;-0.01;61.79;98504.34;10454266;28;20048;-56
2021/01/08 16:05:56;;;;;;;21.50;9.63;;;;;;;-0.06;61.46;98500.41;10453880;28;20077;-54
2021/01/08 16:10:58;;;;;;;27.45;11.68;;;;;;;-0.17;61.93;98503.63;10462775;28;20055;-55
2021/01/08 16:15:59;;;;;;;21.80;7.80;;;;;;;-0.24;61.87;98499.75;10463602;28;20070;-54
2021/01/08 16:21:02;;;;;;;24.05;11.20;;;;;;;-0.26;62.10;98493.84;10460919;28;20051;-54
2021/01/08 16:26:04;;;;;;;36.25;16.30;;;;;;;-0.29;62.15;98499.19;10461241;28;20122;-54
2021/01/08 16:31:05;;;;;;;35.58;19.23;;;;;;;-0.32;61.90;98509.72;10460994;28;20049;-55
2021/01/08 16:36:08;;;;;;;40.15;18.10;;;;;;;-0.29;61.82;98500.03;10460304;28;20067;-53
2021/01/08 16:41:10;;;;;;;26.73;14.43;;;;;;;-0.30;62.00;98515.63;10460961;28;20389;-54
2021/01/08 16:46:11;;;;;;;28.15;14.23;;;;;;;-0.36;61.92;98508.25;10460545;28;20486;-53
2021/01/08 16:51:14;;;;;;;27.55;12.73;;;;;;;-0.42;61.90;98508.59;10460228;28;20049;-53
2021/01/08 16:56:16;;;;;;;19.17;8.88;;;;;;;-0.43;62.33;98512.94;10459466;28;20439;-54
2021/01/08 17:01:17;;;;;;;25.63;9.90;;;;;;;-0.43;61.97;98512.09;10460431;28;20170;-54
2021/01/08 17:06:22;;;;;;;25.67;12.68;;;;;;;-0.49;62.36;98513.31;10460500;28;20064;-54
2021/01/08 17:11:24;;;;;;;20.40;9.10;;;;;;;-0.38;62.11;98512.66;10458601;28;20049;-55
2021/01/08 17:16:27;;;;;;;25.80;11.70;;;;;;;-0.26;62.16;98519.66;10459925;28;20086;-53
2021/01/08 17:21:31;;;;;;;20.70;10.50;;;;;;;-0.19;61.67;98528.69;10459079;28;20045;-54
2021/01/08 17:26:35;;;;;;;20.98;11.57;;;;;;;-0.16;61.34;98514.78;10458944;28;20057;-56
2021/01/08 17:31:37;;;;;;;26.38;9.40;;;;;;;-0.20;61.51;98514.13;10458778;28;20053;-53
2021/01/08 17:36:40;;;;;;;23.73;11.90;;;;;;;-0.16;61.71;98518.19;10458975;28;20439;-53
2021/01/08 17:41:41;;;;;;;23.30;8.88;;;;;;;-0.22;60.84;98515.16;10457743;28;20055;-54
2021/01/08 17:46:44;;;;;;;25.15;9.85;;;;;;;-0.29;61.38;98515.50;10457946;28;20052;-53
2021/01/08 17:51:46;;;;;;;27.75;10.55;;;;;;;-0.15;61.30;98517.28;10457948;28;20079;-53
2021/01/08 17:56:48;;;;;;;25.13;10.13;;;;;;;-0.17;60.91;98532.03;10456099;28;20056;-54
2021/01/08 18:01:51;;;;;;;21.25;9.48;;;;;;;-0.19;61.23;98533.03;10456098;28;20056;-55
2021/01/08 18:06:54;;;;;;;19.08;9.55;;;;;;;-0.20;60.88;98532.22;10457003;28;20144;-54
2021/01/08 18:11:56;;;;;;;21.65;10.40;;;;;;;-0.18;60.97;98526.97;10456475;28;20041;-53
2021/01/08 18:16:57;;;;;;;20.55;10.10;;;;;;;-0.16;60.77;98541.44;10457066;28;20385;-54
2021/01/08 18:22:00;;;;;;;20.88;9.05;;;;;;;-0.26;60.64;98524.84;10455701;28;20485;-54
2021/01/08 18:27:02;;;;;;;25.60;10.57;;;;;;;-0.39;61.44;98539.41;10456037;28;20343;-55
2021/01/08 18:32:04;;;;;;;22.92;10.88;;;;;;;-0.48;61.22;98530.44;10456684;28;20045;-54
2021/01/08 18:37:07;;;;;;;26.65;10.73;;;;;;;-0.55;60.88;98534.31;10456939;28;20474;-54
2021/01/08 18:42:09;;;;;;;26.53;10.83;;;;;;;-0.53;60.98;98541.03;10455586;28;20052;-54
2021/01/08 18:47:10;;;;;;;20.90;9.25;;;;;;;-0.57;60.80;98544.72;10456480;28;20057;-54
2021/01/08 18:52:14;;;;;;;28.58;11.55;;;;;;;-0.56;60.95;98548.13;10456581;28;20053;-53
2021/01/08 18:57:16;;;;;;;24.50;9.68;;;;;;;-0.47;60.89;98543.25;10456695;28;20098;-55
2021/01/08 19:02:17;;;;;;;27.70;11.70;;;;;;;-0.53;60.68;98564.25;10457775;28;20061;-55
2021/01/08 19:07:20;;;;;;;24.95;11.25;;;;;;;-0.52;60.52;98562.53;10456230;28;20052;-54
2021/01/08 19:12:26;;;;;;;20.52;9.90;;;;;;;-0.55;60.50;98568.69;10455855;28;20053;-54
2021/01/08 19:17:28;;;;;;;19.67;8.38;;;;;;;-0.56;60.42;98554.09;10458010;28;20122;-54
2021/01/08 19:22:35;;;;;;;21.38;9.77;;;;;;;-0.59;60.28;98564.63;10456803;28;20052;-53
2021/01/08 19:27:37;;;;;;;24.52;10.80;;;;;;;-0.52;60.20;98581.44;10455693;28;20059;-53
2021/01/08 19:32:43;;;;;;;25.15;10.52;;;;;;;-0.36;60.18;98585.72;10456556;28;20186;-53
2021/01/08 19:37:46;;;;;;;22.58;10.70;;;;;;;-0.26;59.73;98581.66;10454790;28;20106;-55
2021/01/08 19:42:48;;;;;;;26.58;11.20;;;;;;;-0.30;59.75;98575.03;10417374;28;20136;-54
2021/01/08 19:47:50;;;;;;;25.52;13.65;;;;;;;-0.39;59.45;98591.88;10433376;28;20053;-54
2021/01/08 19:52:52;;;;;;;31.05;11.35;;;;;;;-0.40;59.69;98579.03;10464128;28;20371;-54
2021/01/08 19:57:54;;;;;;;24.77;11.27;;;;;;;-0.38;59.51;98587.53;10462630;28;20049;-54
2021/01/08 20:02:56;;;;;;;30.42;12.40;;;;;;;-0.50;59.76;98586.50;10462108;28;20052;-53
2021/01/08 20:07:59;;;;;;;27.02;10.30;;;;;;;-0.47;59.54;98597.47;10461807;28;20378;-54
2021/01/08 20:13:01;;;;;;;22.47;8.87;;;;;;;-0.40;59.51;98594.53;10460988;28;20087;-53
2021/01/08 20:18:04;;;;;;;25.58;9.88;;;;;;;-0.45;59.80;98599.16;10461903;28;20053;-54
2021/01/08 20:23:07;;;;;;;20.92;10.45;;;;;;;-0.49;59.64;98603.66;10458924;28;20051;-54
2021/01/08 20:28:08;;;;;;;24.85;11.10;;;;;;;-0.58;60.16;98602.44;10460222;28;20451;-53
2021/01/08 20:33:13;;;;;;;26.75;11.38;;;;;;;-0.68;60.36;98605.59;10460743;28;20135;-54
2021/01/08 20:38:16;;;;;;;37.30;12.90;;;;;;;-0.68;60.54;98601.28;10460387;28;20067;-54
2021/01/08 20:43:18;;;;;;;22.30;9.37;;;;;;;-0.73;60.49;98600.72;10461134;28;20478;-53
2021/01/08 20:48:20;;;;;;;28.25;12.38;;;;;;;-0.73;60.51;98609.28;10460638;28;20059;-53
2021/01/08 20:53:23;;;;;;;19.17;9.18;;;;;;;-0.74;60.75;98614.53;10459199;28;20047;-53
2021/01/08 20:58:25;;;;;;;26.38;11.52;;;;;;;-0.76;60.66;98611.22;10460051;28;20060;-53
2021/01/08 21:03:27;;;;;;;21.13;10.80;;;;;;;-0.77;60.43;98617.28;10459283;28;20052;-55
2021/01/08 21:08:29;;;;;;;27.23;10.30;;;;;;;-0.80;60.26;98607.13;10458290;28;20041;-53
2021/01/08 21:13:31;;;;;;;28.08;10.65;;;;;;;-0.72;60.72;98625.59;10459984;28;20055;-54
2021/01/08 21:18:33;;;;;;;31.83;13.32;;;;;;;-0.76;60.61;98617.22;10459560;28;20053;-54
2021/01/08 21:23:36;;;;;;;28.00;11.38;;;;;;;-0.60;60.50;98624.91;10458478;28;20045;-54
2021/01/08 21:28:38;;;;;;;23.25;10.52;;;;;;;-0.43;60.22;98620.53;10458956;28;20346;-55
2021/01/08 21:33:40;;;;;;;29.23;11.68;;;;;;;-0.48;59.99;98616.47;10458718;28;20057;-55
2021/01/08 21:38:43;;;;;;;26.85;11.55;;;;;;;-0.51;60.20;98628.72;10456385;28;20056;-54
2021/01/08 21:43:44;;;;;;;20.70;11.20;;;;;;;-0.38;59.94;98614.19;10457425;28;20140;-53
2021/01/08 21:48:46;;;;;;;29.63;12.00;;;;;;;-0.39;60.00;98627.19;10457571;28;20100;-53
2021/01/08 21:53:49;;;;;;;24.20;11.27;;;;;;;-0.37;59.93;98633.09;10456911;28;20044;-54
2021/01/08 21:58:50;;;;;;;29.45;12.38;;;;;;;-0.53;60.09;98628.78;10457262;28;20061;-53
2021/01/08 22:03:52;;;;;;;30.17;11.07;;;;;;;-0.59;60.81;98630.91;10456197;28;20051;-53
2021/01/08 22:08:55;;;;;;;26.15;11.73;;;;;;;-0.59;60.71;98636.06;10456519;28;20087;-55
2021/01/08 22:13:56;;;;;;;30.45;11.68;;;;;;;-0.62;60.60;98634.47;10457142;28;20083;-53
2021/01/08 22:18:58;;;;;;;28.30;11.35;;;;;;;-0.67;61.13;98628.78;10456956;28;20057;-55
2021/01/08 22:24:01;;;;;;;28.70;11.43;;;;;;;-0.62;61.01;98636.25;10456590;28;20045;-53
2021/01/08 22:29:03;;;;;;;27.03;12.10;;;;;;;-0.60;60.84;98640.41;10457382;28;20135;-57
2021/01/08 22:34:06;;;;;;;28.27;12.57;;;;;;;-0.62;60.83;98638.81;10458042;28;20333;-54
2021/01/08 22:39:09;;;;;;;18.05;7.68;;;;;;;-0.68;60.57;98640.00;10456218;28;20053;-55
2021/01/08 22:44:11;;;;;;;29.37;11.53;;;;;;;-0.69;60.58;98640.91;10455912;28;20138;-53
2021/01/08 22:49:12;;;;;;;23.38;9.68;;;;;;;-0.63;60.38;98638.00;10456373;28;20045;-54
2021/01/08 22:54:15;;;;;;;28.02;10.68;;;;;;;-0.61;60.24;98638.75;10455133;28;20351;-54
2021/01/08 22:59:17;;;;;;;23.17;10.93;;;;;;;-0.66;60.37;98656.22;10455429;28;20416;-54
2021/01/08 23:04:20;;;;;;;27.10;10.52;;;;;;;-0.71;60.31;98647.91;10455813;28;20045;-54